sensor_id;sensor_type;location;lat;lon;timestamp;P1;durP1;ratioP1;P2;durP2;ratioP2
10586;SDS011;5341;47.606;7.576;2023-04-03T00:00:57;5.47;;;4.97;;
10586;SDS011;5341;47.606;7.576;2023-04-03T00:03:25;6.18;;;4.95;;
10586;SDS011;5341;47.606;7.576;2023-04-03T00:05:52;5.03;;;4.57;;
10586;SDS011;5341;47.606;7.576;2023-04-03T00:08:21;5.65;;;5.15;;
10586;SDS011;5341;47.606;7.576;2023-04-03T00:10:49;4.97;;;4.50;;
10586;SDS011;5341;47.606;7.576;2023-04-03T00:13:16;4.70;;;4.30;;
10586;SDS011;5341;47.606;7.576;2023-04-03T00:15:44;4.88;;;4.35;;
10586;SDS011;5341;47.606;7.576;2023-04-03T00:18:12;4.40;;;4.00;;
10586;SDS011;5341;47.606;7.576;2023-04-03T00:20:39;5.10;;;4.60;;
10586;SDS011;5341;47.606;7.576;2023-04-03T00:23:07;4.60;;;4.20;;
10586;SDS011;5341;47.606;7.576;2023-04-03T00:25:35;4.70;;;4.05;;
10586;SDS011;5341;47.606;7.576;2023-04-03T00:28:03;4.20;;;3.80;;
10586;SDS011;5341;47.606;7.576;2023-04-03T00:30:31;6.18;;;4.00;;
10586;SDS011;5341;47.606;7.576;2023-04-03T00:32:59;4.22;;;3.83;;
10586;SDS011;5341;47.606;7.576;2023-04-03T00:35:27;3.55;;;3.25;;
10586;SDS011;5341;47.606;7.576;2023-04-03T00:37:55;4.65;;;3.60;;
10586;SDS011;5341;47.606;7.576;2023-04-03T00:40:23;4.03;;;3.72;;
10586;SDS011;5341;47.606;7.576;2023-04-03T00:42:56;3.83;;;3.17;;
10586;SDS011;5341;47.606;7.576;2023-04-03T00:45:33;3.83;;;3.50;;
10586;SDS011;5341;47.606;7.576;2023-04-03T00:48:02;3.50;;;3.20;;
10586;SDS011;5341;47.606;7.576;2023-04-03T00:50:32;3.78;;;3.42;;
10586;SDS011;5341;47.606;7.576;2023-04-03T00:53:02;3.55;;;3.10;;
10586;SDS011;5341;47.606;7.576;2023-04-03T00:55:32;3.50;;;3.20;;
10586;SDS011;5341;47.606;7.576;2023-04-03T00:58:02;3.58;;;3.28;;
10586;SDS011;5341;47.606;7.576;2023-04-03T01:00:30;3.63;;;3.03;;
10586;SDS011;5341;47.606;7.576;2023-04-03T01:02:58;2.90;;;2.70;;
10586;SDS011;5341;47.606;7.576;2023-04-03T01:05:26;3.85;;;3.28;;
10586;SDS011;5341;47.606;7.576;2023-04-03T01:07:54;3.58;;;3.10;;
10586;SDS011;5341;47.606;7.576;2023-04-03T01:10:23;4.65;;;2.90;;
10586;SDS011;5341;47.606;7.576;2023-04-03T01:12:51;3.53;;;2.83;;
10586;SDS011;5341;47.606;7.576;2023-04-03T01:15:21;3.55;;;3.05;;
10586;SDS011;5341;47.606;7.576;2023-04-03T01:17:49;3.55;;;3.08;;
10586;SDS011;5341;47.606;7.576;2023-04-03T01:23:32;3.08;;;2.78;;
10586;SDS011;5341;47.606;7.576;2023-04-03T01:26:10;5.50;;;2.97;;
10586;SDS011;5341;47.606;7.576;2023-04-03T01:28:38;3.60;;;2.60;;
10586;SDS011;5341;47.606;7.576;2023-04-03T01:31:10;3.17;;;2.83;;
10586;SDS011;5341;47.606;7.576;2023-04-03T01:33:45;3.40;;;2.83;;
10586;SDS011;5341;47.606;7.576;2023-04-03T01:36:13;2.95;;;2.60;;
10586;SDS011;5341;47.606;7.576;2023-04-03T01:38:42;3.17;;;2.55;;
10586;SDS011;5341;47.606;7.576;2023-04-03T01:41:10;3.13;;;2.83;;
10586;SDS011;5341;47.606;7.576;2023-04-03T01:43:38;3.97;;;2.78;;
10586;SDS011;5341;47.606;7.576;2023-04-03T01:46:06;3.55;;;2.85;;
10586;SDS011;5341;47.606;7.576;2023-04-03T01:48:34;3.10;;;2.78;;
10586;SDS011;5341;47.606;7.576;2023-04-03T01:51:03;4.30;;;2.88;;
10586;SDS011;5341;47.606;7.576;2023-04-03T01:53:30;3.47;;;2.90;;
10586;SDS011;5341;47.606;7.576;2023-04-03T01:55:58;3.05;;;2.70;;
10586;SDS011;5341;47.606;7.576;2023-04-03T01:58:26;3.28;;;2.97;;
10586;SDS011;5341;47.606;7.576;2023-04-03T02:00:56;3.25;;;2.95;;
10586;SDS011;5341;47.606;7.576;2023-04-03T02:03:23;3.10;;;2.80;;
10586;SDS011;5341;47.606;7.576;2023-04-03T02:05:51;3.58;;;2.78;;
10586;SDS011;5341;47.606;7.576;2023-04-03T02:08:22;3.28;;;2.97;;
10586;SDS011;5341;47.606;7.576;2023-04-03T02:10:50;3.35;;;2.80;;
10586;SDS011;5341;47.606;7.576;2023-04-03T02:13:18;3.28;;;2.75;;
10586;SDS011;5341;47.606;7.576;2023-04-03T02:15:46;3.20;;;2.90;;
10586;SDS011;5341;47.606;7.576;2023-04-03T02:18:16;5.70;;;3.08;;
10586;SDS011;5341;47.606;7.576;2023-04-03T02:20:45;4.30;;;2.80;;
10586;SDS011;5341;47.606;7.576;2023-04-03T02:23:13;4.88;;;3.38;;
10586;SDS011;5341;47.606;7.576;2023-04-03T02:25:42;4.00;;;2.95;;
10586;SDS011;5341;47.606;7.576;2023-04-03T02:28:10;3.03;;;2.72;;
10586;SDS011;5341;47.606;7.576;2023-04-03T02:30:37;3.05;;;2.75;;
10586;SDS011;5341;47.606;7.576;2023-04-03T02:33:05;3.00;;;2.70;;
10586;SDS011;5341;47.606;7.576;2023-04-03T02:35:32;2.88;;;2.58;;
10586;SDS011;5341;47.606;7.576;2023-04-03T02:38:00;2.75;;;2.33;;
10586;SDS011;5341;47.606;7.576;2023-04-03T02:40:27;3.90;;;2.50;;
10586;SDS011;5341;47.606;7.576;2023-04-03T02:42:56;4.28;;;2.58;;
10586;SDS011;5341;47.606;7.576;2023-04-03T02:45:24;3.35;;;2.63;;
10586;SDS011;5341;47.606;7.576;2023-04-03T02:47:52;2.88;;;2.67;;
10586;SDS011;5341;47.606;7.576;2023-04-03T02:50:19;2.97;;;2.53;;
10586;SDS011;5341;47.606;7.576;2023-04-03T02:52:47;3.15;;;2.85;;
10586;SDS011;5341;47.606;7.576;2023-04-03T02:55:14;4.28;;;2.72;;
10586;SDS011;5341;47.606;7.576;2023-04-03T02:57:44;3.13;;;2.53;;
10586;SDS011;5341;47.606;7.576;2023-04-03T03:00:14;3.55;;;2.60;;
10586;SDS011;5341;47.606;7.576;2023-04-03T03:02:42;2.47;;;2.28;;
10586;SDS011;5341;47.606;7.576;2023-04-03T03:05:09;2.83;;;2.60;;
10586;SDS011;5341;47.606;7.576;2023-04-03T03:07:38;2.97;;;2.38;;
10586;SDS011;5341;47.606;7.576;2023-04-03T03:10:09;2.88;;;2.30;;
10586;SDS011;5341;47.606;7.576;2023-04-03T03:12:36;3.05;;;2.40;;
10586;SDS011;5341;47.606;7.576;2023-04-03T03:15:07;3.22;;;2.30;;
10586;SDS011;5341;47.606;7.576;2023-04-03T03:17:39;2.90;;;2.35;;
10586;SDS011;5341;47.606;7.576;2023-04-03T03:20:10;4.32;;;2.50;;
10586;SDS011;5341;47.606;7.576;2023-04-03T03:22:40;3.08;;;2.60;;
10586;SDS011;5341;47.606;7.576;2023-04-03T03:25:08;2.63;;;2.42;;
10586;SDS011;5341;47.606;7.576;2023-04-03T03:27:36;2.40;;;2.20;;
10586;SDS011;5341;47.606;7.576;2023-04-03T03:30:10;2.78;;;2.35;;
10586;SDS011;5341;47.606;7.576;2023-04-03T03:32:38;3.47;;;2.60;;
10586;SDS011;5341;47.606;7.576;2023-04-03T03:35:08;2.70;;;2.50;;
10586;SDS011;5341;47.606;7.576;2023-04-03T03:37:36;3.00;;;2.50;;
10586;SDS011;5341;47.606;7.576;2023-04-03T03:40:06;2.80;;;2.22;;
10586;SDS011;5341;47.606;7.576;2023-04-03T03:42:38;3.00;;;2.60;;
10586;SDS011;5341;47.606;7.576;2023-04-03T03:45:06;3.20;;;2.80;;
10586;SDS011;5341;47.606;7.576;2023-04-03T03:47:35;2.92;;;2.60;;
10586;SDS011;5341;47.606;7.576;2023-04-03T03:50:05;3.17;;;2.60;;
10586;SDS011;5341;47.606;7.576;2023-04-03T03:52:33;2.60;;;2.40;;
10586;SDS011;5341;47.606;7.576;2023-04-03T03:55:01;3.22;;;2.47;;
10586;SDS011;5341;47.606;7.576;2023-04-03T03:57:28;2.50;;;2.30;;
10586;SDS011;5341;47.606;7.576;2023-04-03T03:59:56;2.60;;;2.20;;
10586;SDS011;5341;47.606;7.576;2023-04-03T04:02:25;4.15;;;2.85;;
10586;SDS011;5341;47.606;7.576;2023-04-03T04:04:57;4.28;;;2.67;;
10586;SDS011;5341;47.606;7.576;2023-04-03T04:07:32;2.75;;;2.50;;
10586;SDS011;5341;47.606;7.576;2023-04-03T04:10:00;4.22;;;2.60;;
10586;SDS011;5341;47.606;7.576;2023-04-03T04:12:29;2.95;;;2.65;;
10586;SDS011;5341;47.606;7.576;2023-04-03T04:14:56;2.58;;;2.38;;
10586;SDS011;5341;47.606;7.576;2023-04-03T04:17:24;4.40;;;2.75;;
10586;SDS011;5341;47.606;7.576;2023-04-03T04:19:51;3.03;;;2.75;;
10586;SDS011;5341;47.606;7.576;2023-04-03T04:22:19;3.45;;;2.60;;
10586;SDS011;5341;47.606;7.576;2023-04-03T04:24:48;3.25;;;2.58;;
10586;SDS011;5341;47.606;7.576;2023-04-03T04:27:15;3.67;;;2.53;;
10586;SDS011;5341;47.606;7.576;2023-04-03T04:29:43;3.65;;;2.72;;
10586;SDS011;5341;47.606;7.576;2023-04-03T04:32:11;3.00;;;2.50;;
10586;SDS011;5341;47.606;7.576;2023-04-03T04:34:39;3.30;;;2.50;;
10586;SDS011;5341;47.606;7.576;2023-04-03T04:37:07;3.03;;;2.42;;
10586;SDS011;5341;47.606;7.576;2023-04-03T04:39:35;3.72;;;2.70;;
10586;SDS011;5341;47.606;7.576;2023-04-03T04:42:04;3.60;;;2.70;;
10586;SDS011;5341;47.606;7.576;2023-04-03T04:44:34;3.40;;;2.90;;
10586;SDS011;5341;47.606;7.576;2023-04-03T04:47:03;4.15;;;2.72;;
10586;SDS011;5341;47.606;7.576;2023-04-03T04:49:32;2.75;;;2.45;;
10586;SDS011;5341;47.606;7.576;2023-04-03T04:52:00;3.75;;;2.35;;
10586;SDS011;5341;47.606;7.576;2023-04-03T04:54:30;4.03;;;2.78;;
10586;SDS011;5341;47.606;7.576;2023-04-03T04:56:58;4.00;;;2.83;;
10586;SDS011;5341;47.606;7.576;2023-04-03T04:59:29;2.70;;;2.45;;
10586;SDS011;5341;47.606;7.576;2023-04-03T05:01:57;3.38;;;2.88;;
10586;SDS011;5341;47.606;7.576;2023-04-03T05:04:26;3.75;;;2.88;;
10586;SDS011;5341;47.606;7.576;2023-04-03T05:07:00;2.92;;;2.40;;
10586;SDS011;5341;47.606;7.576;2023-04-03T05:09:30;3.10;;;2.47;;
10586;SDS011;5341;47.606;7.576;2023-04-03T05:11:59;3.42;;;2.55;;
10586;SDS011;5341;47.606;7.576;2023-04-03T05:14:35;3.63;;;2.90;;
10586;SDS011;5341;47.606;7.576;2023-04-03T05:17:05;2.97;;;2.65;;
10586;SDS011;5341;47.606;7.576;2023-04-03T05:19:36;2.78;;;2.47;;
10586;SDS011;5341;47.606;7.576;2023-04-03T05:22:05;2.70;;;2.42;;
10586;SDS011;5341;47.606;7.576;2023-04-03T05:24:34;2.88;;;2.40;;
10586;SDS011;5341;47.606;7.576;2023-04-03T05:27:02;3.53;;;2.70;;
10586;SDS011;5341;47.606;7.576;2023-04-03T05:29:32;3.55;;;2.72;;
10586;SDS011;5341;47.606;7.576;2023-04-03T05:32:02;2.95;;;2.65;;
10586;SDS011;5341;47.606;7.576;2023-04-03T05:34:30;2.78;;;2.53;;
10586;SDS011;5341;47.606;7.576;2023-04-03T05:36:58;3.67;;;3.00;;
10586;SDS011;5341;47.606;7.576;2023-04-03T05:39:28;5.40;;;3.00;;
10586;SDS011;5341;47.606;7.576;2023-04-03T05:41:57;3.50;;;2.42;;
10586;SDS011;5341;47.606;7.576;2023-04-03T05:44:25;3.30;;;2.53;;
10586;SDS011;5341;47.606;7.576;2023-04-03T05:46:54;3.63;;;2.63;;
10586;SDS011;5341;47.606;7.576;2023-04-03T05:49:23;4.32;;;2.78;;
10586;SDS011;5341;47.606;7.576;2023-04-03T05:51:50;2.97;;;2.67;;
10586;SDS011;5341;47.606;7.576;2023-04-03T05:54:23;4.05;;;2.88;;
10586;SDS011;5341;47.606;7.576;2023-04-03T05:56:57;3.95;;;2.80;;
10586;SDS011;5341;47.606;7.576;2023-04-03T05:59:25;3.65;;;2.88;;
10586;SDS011;5341;47.606;7.576;2023-04-03T06:01:57;4.28;;;2.92;;
10586;SDS011;5341;47.606;7.576;2023-04-03T06:04:26;4.95;;;3.05;;
10586;SDS011;5341;47.606;7.576;2023-04-03T06:06:55;4.70;;;2.95;;
10586;SDS011;5341;47.606;7.576;2023-04-03T06:09:27;3.30;;;2.80;;
10586;SDS011;5341;47.606;7.576;2023-04-03T06:11:56;4.20;;;2.90;;
10586;SDS011;5341;47.606;7.576;2023-04-03T06:14:25;3.80;;;2.90;;
10586;SDS011;5341;47.606;7.576;2023-04-03T06:16:54;3.78;;;2.58;;
10586;SDS011;5341;47.606;7.576;2023-04-03T06:19:21;4.78;;;2.80;;
10586;SDS011;5341;47.606;7.576;2023-04-03T06:21:55;3.72;;;2.58;;
10586;SDS011;5341;47.606;7.576;2023-04-03T06:24:23;2.85;;;2.55;;
10586;SDS011;5341;47.606;7.576;2023-04-03T06:26:51;3.65;;;2.80;;
10586;SDS011;5341;47.606;7.576;2023-04-03T06:29:20;3.28;;;2.88;;
10586;SDS011;5341;47.606;7.576;2023-04-03T06:31:48;4.20;;;2.70;;
10586;SDS011;5341;47.606;7.576;2023-04-03T06:34:16;4.88;;;3.03;;
10586;SDS011;5341;47.606;7.576;2023-04-03T06:36:43;4.32;;;2.92;;
10586;SDS011;5341;47.606;7.576;2023-04-03T06:39:13;4.93;;;3.10;;
10586;SDS011;5341;47.606;7.576;2023-04-03T06:41:43;3.80;;;2.70;;
10586;SDS011;5341;47.606;7.576;2023-04-03T06:44:12;3.22;;;2.67;;
10586;SDS011;5341;47.606;7.576;2023-04-03T06:46:41;5.00;;;3.22;;
10586;SDS011;5341;47.606;7.576;2023-04-03T06:49:10;3.53;;;2.67;;
10586;SDS011;5341;47.606;7.576;2023-04-03T06:51:37;3.50;;;2.80;;
10586;SDS011;5341;47.606;7.576;2023-04-03T06:54:05;3.25;;;2.63;;
10586;SDS011;5341;47.606;7.576;2023-04-03T06:56:35;3.33;;;2.88;;
10586;SDS011;5341;47.606;7.576;2023-04-03T06:59:02;4.05;;;3.15;;
10586;SDS011;5341;47.606;7.576;2023-04-03T07:01:30;3.72;;;3.25;;
10586;SDS011;5341;47.606;7.576;2023-04-03T07:03:58;5.45;;;3.40;;
10586;SDS011;5341;47.606;7.576;2023-04-03T07:06:25;3.88;;;2.65;;
10586;SDS011;5341;47.606;7.576;2023-04-03T07:08:58;4.40;;;2.95;;
10586;SDS011;5341;47.606;7.576;2023-04-03T07:11:26;3.42;;;3.00;;
10586;SDS011;5341;47.606;7.576;2023-04-03T07:13:56;3.15;;;2.80;;
10586;SDS011;5341;47.606;7.576;2023-04-03T07:16:27;3.20;;;2.90;;
10586;SDS011;5341;47.606;7.576;2023-04-03T07:18:56;3.60;;;2.97;;
10586;SDS011;5341;47.606;7.576;2023-04-03T07:21:24;4.65;;;3.25;;
10586;SDS011;5341;47.606;7.576;2023-04-03T07:23:52;5.05;;;3.90;;
10586;SDS011;5341;47.606;7.576;2023-04-03T07:26:20;4.20;;;3.80;;
10586;SDS011;5341;47.606;7.576;2023-04-03T07:28:48;4.72;;;3.83;;
10586;SDS011;5341;47.606;7.576;2023-04-03T07:31:22;3.97;;;3.50;;
10586;SDS011;5341;47.606;7.576;2023-04-03T07:33:51;4.00;;;3.40;;
10586;SDS011;5341;47.606;7.576;2023-04-03T07:36:19;3.45;;;3.10;;
10586;SDS011;5341;47.606;7.576;2023-04-03T07:38:52;3.28;;;2.97;;
10586;SDS011;5341;47.606;7.576;2023-04-03T07:41:19;4.10;;;3.30;;
10586;SDS011;5341;47.606;7.576;2023-04-03T07:43:48;3.15;;;2.85;;
10586;SDS011;5341;47.606;7.576;2023-04-03T07:46:17;3.63;;;3.03;;
10586;SDS011;5341;47.606;7.576;2023-04-03T07:48:48;4.07;;;3.55;;
10586;SDS011;5341;47.606;7.576;2023-04-03T07:51:15;4.65;;;3.95;;
10586;SDS011;5341;47.606;7.576;2023-04-03T07:53:43;5.15;;;4.20;;
10586;SDS011;5341;47.606;7.576;2023-04-03T07:56:10;4.45;;;3.88;;
10586;SDS011;5341;47.606;7.576;2023-04-03T07:58:38;4.75;;;3.58;;
10586;SDS011;5341;47.606;7.576;2023-04-03T08:01:06;4.18;;;3.42;;
10586;SDS011;5341;47.606;7.576;2023-04-03T08:03:34;4.93;;;2.97;;
10586;SDS011;5341;47.606;7.576;2023-04-03T08:06:04;4.88;;;3.42;;
10586;SDS011;5341;47.606;7.576;2023-04-03T08:08:33;4.65;;;2.92;;
10586;SDS011;5341;47.606;7.576;2023-04-03T08:11:01;3.88;;;3.28;;
10586;SDS011;5341;47.606;7.576;2023-04-03T08:13:30;5.80;;;3.15;;
10586;SDS011;5341;47.606;7.576;2023-04-03T08:16:06;3.72;;;3.17;;
10586;SDS011;5341;47.606;7.576;2023-04-03T08:18:35;3.58;;;3.17;;
10586;SDS011;5341;47.606;7.576;2023-04-03T08:21:09;4.35;;;3.25;;
10586;SDS011;5341;47.606;7.576;2023-04-03T08:23:38;4.65;;;3.40;;
10586;SDS011;5341;47.606;7.576;2023-04-03T08:26:07;3.40;;;3.10;;
10586;SDS011;5341;47.606;7.576;2023-04-03T08:28:35;3.88;;;3.17;;
10586;SDS011;5341;47.606;7.576;2023-04-03T08:31:03;3.40;;;3.10;;
10586;SDS011;5341;47.606;7.576;2023-04-03T08:33:34;4.78;;;3.17;;
10586;SDS011;5341;47.606;7.576;2023-04-03T08:36:05;4.43;;;3.45;;
10586;SDS011;5341;47.606;7.576;2023-04-03T08:38:43;3.50;;;3.20;;
10586;SDS011;5341;47.606;7.576;2023-04-03T08:41:12;3.42;;;3.00;;
10586;SDS011;5341;47.606;7.576;2023-04-03T08:43:48;3.40;;;3.10;;
10586;SDS011;5341;47.606;7.576;2023-04-03T08:46:25;3.42;;;3.05;;
10586;SDS011;5341;47.606;7.576;2023-04-03T08:49:07;4.00;;;3.40;;
10586;SDS011;5341;47.606;7.576;2023-04-03T08:51:46;3.20;;;2.90;;
10586;SDS011;5341;47.606;7.576;2023-04-03T08:54:20;3.45;;;2.80;;
10586;SDS011;5341;47.606;7.576;2023-04-03T08:56:52;3.85;;;2.97;;
10586;SDS011;5341;47.606;7.576;2023-04-03T08:59:23;4.35;;;3.10;;
10586;SDS011;5341;47.606;7.576;2023-04-03T09:01:56;3.38;;;3.08;;
10586;SDS011;5341;47.606;7.576;2023-04-03T09:04:27;4.53;;;2.97;;
10586;SDS011;5341;47.606;7.576;2023-04-03T09:07:02;3.40;;;3.10;;
10586;SDS011;5341;47.606;7.576;2023-04-03T09:09:41;3.17;;;2.70;;
10586;SDS011;5341;47.606;7.576;2023-04-03T09:12:12;3.75;;;3.17;;
10586;SDS011;5341;47.606;7.576;2023-04-03T09:14:46;3.22;;;2.92;;
10586;SDS011;5341;47.606;7.576;2023-04-03T09:17:21;3.63;;;2.92;;
10586;SDS011;5341;47.606;7.576;2023-04-03T09:19:58;3.58;;;3.00;;
10586;SDS011;5341;47.606;7.576;2023-04-03T09:22:37;3.80;;;3.13;;
10586;SDS011;5341;47.606;7.576;2023-04-03T09:25:10;4.25;;;3.10;;
10586;SDS011;5341;47.606;7.576;2023-04-03T09:27:41;4.15;;;2.92;;
10586;SDS011;5341;47.606;7.576;2023-04-03T09:30:11;4.05;;;3.00;;
10586;SDS011;5341;47.606;7.576;2023-04-03T09:32:41;3.17;;;2.88;;
10586;SDS011;5341;47.606;7.576;2023-04-03T09:35:16;3.42;;;2.90;;
10586;SDS011;5341;47.606;7.576;2023-04-03T09:37:48;3.50;;;2.80;;
10586;SDS011;5341;47.606;7.576;2023-04-03T09:40:27;3.10;;;2.78;;
10586;SDS011;5341;47.606;7.576;2023-04-03T09:42:58;3.65;;;2.90;;
10586;SDS011;5341;47.606;7.576;2023-04-03T09:45:28;3.55;;;2.92;;
10586;SDS011;5341;47.606;7.576;2023-04-03T09:48:07;3.00;;;2.70;;
10586;SDS011;5341;47.606;7.576;2023-04-03T09:50:36;3.22;;;2.92;;
10586;SDS011;5341;47.606;7.576;2023-04-03T09:53:06;3.17;;;2.88;;
10586;SDS011;5341;47.606;7.576;2023-04-03T09:55:52;3.00;;;2.75;;
10586;SDS011;5341;47.606;7.576;2023-04-03T09:58:23;4.32;;;2.90;;
10586;SDS011;5341;47.606;7.576;2023-04-03T10:00:55;3.30;;;2.92;;
10586;SDS011;5341;47.606;7.576;2023-04-03T10:03:25;3.20;;;2.90;;
10586;SDS011;5341;47.606;7.576;2023-04-03T10:05:57;4.07;;;3.45;;
10586;SDS011;5341;47.606;7.576;2023-04-03T10:08:28;5.63;;;3.58;;
10586;SDS011;5341;47.606;7.576;2023-04-03T10:11:08;5.22;;;3.60;;
10586;SDS011;5341;47.606;7.576;2023-04-03T10:13:49;4.20;;;3.80;;
10586;SDS011;5341;47.606;7.576;2023-04-03T10:16:18;4.53;;;3.78;;
10586;SDS011;5341;47.606;7.576;2023-04-03T10:18:53;3.60;;;3.30;;
10586;SDS011;5341;47.606;7.576;2023-04-03T10:21:29;5.32;;;3.35;;
10586;SDS011;5341;47.606;7.576;2023-04-03T10:24:07;5.38;;;4.07;;
10586;SDS011;5341;47.606;7.576;2023-04-03T10:26:43;7.38;;;4.20;;
10586;SDS011;5341;47.606;7.576;2023-04-03T10:29:18;7.25;;;4.25;;
10586;SDS011;5341;47.606;7.576;2023-04-03T10:31:57;6.55;;;4.53;;
10586;SDS011;5341;47.606;7.576;2023-04-03T10:34:31;5.65;;;4.03;;
10586;SDS011;5341;47.606;7.576;2023-04-03T10:37:05;5.10;;;4.25;;
10586;SDS011;5341;47.606;7.576;2023-04-03T10:39:43;5.32;;;3.72;;
10586;SDS011;5341;47.606;7.576;2023-04-03T10:42:18;5.95;;;3.63;;
10586;SDS011;5341;47.606;7.576;2023-04-03T10:44:57;7.43;;;4.30;;
10586;SDS011;5341;47.606;7.576;2023-04-03T10:47:36;5.43;;;4.53;;
10586;SDS011;5341;47.606;7.576;2023-04-03T10:53:12;4.38;;;3.97;;
10586;SDS011;5341;47.606;7.576;2023-04-03T10:55:50;6.00;;;4.60;;
10586;SDS011;5341;47.606;7.576;2023-04-03T10:58:26;4.32;;;3.92;;
10586;SDS011;5341;47.606;7.576;2023-04-03T11:00:59;6.05;;;4.60;;
10586;SDS011;5341;47.606;7.576;2023-04-03T11:03:34;4.65;;;4.00;;
10586;SDS011;5341;47.606;7.576;2023-04-03T11:06:07;5.20;;;4.70;;
10586;SDS011;5341;47.606;7.576;2023-04-03T11:08:37;5.05;;;4.45;;
10586;SDS011;5341;47.606;7.576;2023-04-03T11:11:11;6.75;;;4.95;;
10586;SDS011;5341;47.606;7.576;2023-04-03T11:13:43;6.95;;;4.13;;
10586;SDS011;5341;47.606;7.576;2023-04-03T11:16:16;4.40;;;4.00;;
10586;SDS011;5341;47.606;7.576;2023-04-03T11:18:52;4.97;;;4.22;;
10586;SDS011;5341;47.606;7.576;2023-04-03T11:21:24;5.88;;;4.13;;
10586;SDS011;5341;47.606;7.576;2023-04-03T11:23:56;4.93;;;4.20;;
10586;SDS011;5341;47.606;7.576;2023-04-03T11:26:29;5.30;;;4.80;;
10586;SDS011;5341;47.606;7.576;2023-04-03T11:29:03;5.82;;;4.13;;
10586;SDS011;5341;47.606;7.576;2023-04-03T11:31:38;5.50;;;4.57;;
10586;SDS011;5341;47.606;7.576;2023-04-03T11:34:20;4.72;;;4.00;;
10586;SDS011;5341;47.606;7.576;2023-04-03T11:36:55;4.50;;;3.85;;
10586;SDS011;5341;47.606;7.576;2023-04-03T11:39:26;3.97;;;3.53;;
10586;SDS011;5341;47.606;7.576;2023-04-03T11:44:50;5.63;;;4.90;;
10586;SDS011;5341;47.606;7.576;2023-04-03T11:53:31;5.07;;;3.10;;
10586;SDS011;5341;47.606;7.576;2023-04-03T11:56:02;3.97;;;3.22;;
10586;SDS011;5341;47.606;7.576;2023-04-03T11:58:33;4.85;;;3.63;;
10586;SDS011;5341;47.606;7.576;2023-04-03T12:01:05;5.53;;;3.58;;
10586;SDS011;5341;47.606;7.576;2023-04-03T12:12:33;2.60;;;2.08;;
10586;SDS011;5341;47.606;7.576;2023-04-03T12:15:20;3.65;;;2.20;;
10586;SDS011;5341;47.606;7.576;2023-04-03T12:21:09;3.25;;;2.40;;
10586;SDS011;5341;47.606;7.576;2023-04-03T12:26:30;5.38;;;2.28;;
10586;SDS011;5341;47.606;7.576;2023-04-03T12:29:02;2.72;;;2.22;;
10586;SDS011;5341;47.606;7.576;2023-04-03T12:31:45;3.75;;;2.80;;
10586;SDS011;5341;47.606;7.576;2023-04-03T12:37:21;2.72;;;2.30;;
10586;SDS011;5341;47.606;7.576;2023-04-03T12:40:02;4.18;;;2.60;;
10586;SDS011;5341;47.606;7.576;2023-04-03T12:42:51;3.95;;;2.78;;
10586;SDS011;5341;47.606;7.576;2023-04-03T12:45:30;2.55;;;2.30;;
10586;SDS011;5341;47.606;7.576;2023-04-03T12:48:14;3.17;;;2.45;;
10586;SDS011;5341;47.606;7.576;2023-04-03T12:50:43;3.45;;;2.42;;
10586;SDS011;5341;47.606;7.576;2023-04-03T12:53:14;3.90;;;2.63;;
10586;SDS011;5341;47.606;7.576;2023-04-03T12:55:45;3.25;;;2.60;;
10586;SDS011;5341;47.606;7.576;2023-04-03T12:58:16;4.75;;;2.72;;
10586;SDS011;5341;47.606;7.576;2023-04-03T13:00:58;3.85;;;2.33;;
10586;SDS011;5341;47.606;7.576;2023-04-03T13:03:29;3.28;;;2.45;;
10586;SDS011;5341;47.606;7.576;2023-04-03T13:05:58;3.47;;;2.47;;
10586;SDS011;5341;47.606;7.576;2023-04-03T13:08:29;3.03;;;2.25;;
10586;SDS011;5341;47.606;7.576;2023-04-03T13:10:59;3.15;;;2.25;;
10586;SDS011;5341;47.606;7.576;2023-04-03T13:13:28;2.95;;;2.10;;
10586;SDS011;5341;47.606;7.576;2023-04-03T13:15:57;3.30;;;2.30;;
10586;SDS011;5341;47.606;7.576;2023-04-03T13:18:30;2.33;;;2.13;;
10586;SDS011;5341;47.606;7.576;2023-04-03T13:21:01;2.63;;;2.35;;
10586;SDS011;5341;47.606;7.576;2023-04-03T13:23:34;2.67;;;2.35;;
10586;SDS011;5341;47.606;7.576;2023-04-03T13:26:22;3.17;;;2.20;;
10586;SDS011;5341;47.606;7.576;2023-04-03T13:28:57;3.78;;;2.25;;
10586;SDS011;5341;47.606;7.576;2023-04-03T13:31:34;2.50;;;2.30;;
10586;SDS011;5341;47.606;7.576;2023-04-03T13:34:19;2.97;;;2.28;;
10586;SDS011;5341;47.606;7.576;2023-04-03T13:36:59;5.25;;;2.95;;
10586;SDS011;5341;47.606;7.576;2023-04-03T13:39:33;4.50;;;2.95;;
10586;SDS011;5341;47.606;7.576;2023-04-03T13:42:20;4.28;;;2.63;;
10586;SDS011;5341;47.606;7.576;2023-04-03T13:45:07;3.53;;;2.80;;
10586;SDS011;5341;47.606;7.576;2023-04-03T13:47:46;4.15;;;2.70;;
10586;SDS011;5341;47.606;7.576;2023-04-03T13:50:19;4.80;;;2.60;;
10586;SDS011;5341;47.606;7.576;2023-04-03T13:52:49;4.28;;;2.65;;
10586;SDS011;5341;47.606;7.576;2023-04-03T13:55:21;5.45;;;2.80;;
10586;SDS011;5341;47.606;7.576;2023-04-03T13:57:56;4.30;;;3.15;;
10586;SDS011;5341;47.606;7.576;2023-04-03T14:00:30;4.20;;;2.70;;
10586;SDS011;5341;47.606;7.576;2023-04-03T14:03:12;5.65;;;3.05;;
10586;SDS011;5341;47.606;7.576;2023-04-03T14:05:49;3.17;;;2.30;;
10586;SDS011;5341;47.606;7.576;2023-04-03T14:08:16;5.28;;;2.65;;
10586;SDS011;5341;47.606;7.576;2023-04-03T14:10:44;2.92;;;2.30;;
10586;SDS011;5341;47.606;7.576;2023-04-03T14:13:13;3.72;;;2.20;;
10586;SDS011;5341;47.606;7.576;2023-04-03T14:15:42;2.83;;;2.15;;
10586;SDS011;5341;47.606;7.576;2023-04-03T14:18:10;3.28;;;2.30;;
10586;SDS011;5341;47.606;7.576;2023-04-03T14:20:38;4.47;;;2.13;;
10586;SDS011;5341;47.606;7.576;2023-04-03T14:23:07;3.15;;;2.08;;
10586;SDS011;5341;47.606;7.576;2023-04-03T14:25:39;5.65;;;2.70;;
10586;SDS011;5341;47.606;7.576;2023-04-03T14:28:12;3.95;;;2.40;;
10586;SDS011;5341;47.606;7.576;2023-04-03T14:30:42;6.47;;;3.30;;
10586;SDS011;5341;47.606;7.576;2023-04-03T14:33:11;7.63;;;3.22;;
10586;SDS011;5341;47.606;7.576;2023-04-03T14:35:41;7.25;;;3.63;;
10586;SDS011;5341;47.606;7.576;2023-04-03T14:40:51;4.95;;;3.47;;
10586;SDS011;5341;47.606;7.576;2023-04-03T14:43:21;6.93;;;3.33;;
10586;SDS011;5341;47.606;7.576;2023-04-03T14:45:50;5.50;;;3.05;;
10586;SDS011;5341;47.606;7.576;2023-04-03T14:48:19;4.65;;;3.15;;
10586;SDS011;5341;47.606;7.576;2023-04-03T14:50:48;5.85;;;3.22;;
10586;SDS011;5341;47.606;7.576;2023-04-03T14:53:16;6.97;;;3.35;;
10586;SDS011;5341;47.606;7.576;2023-04-03T14:55:49;5.57;;;3.03;;
10586;SDS011;5341;47.606;7.576;2023-04-03T14:58:19;5.72;;;3.50;;
10586;SDS011;5341;47.606;7.576;2023-04-03T15:00:47;6.72;;;3.50;;
10586;SDS011;5341;47.606;7.576;2023-04-03T15:03:16;8.38;;;3.78;;
10586;SDS011;5341;47.606;7.576;2023-04-03T15:05:45;5.30;;;3.30;;
10586;SDS011;5341;47.606;7.576;2023-04-03T15:08:18;6.47;;;3.40;;
10586;SDS011;5341;47.606;7.576;2023-04-03T15:10:49;5.60;;;2.97;;
10586;SDS011;5341;47.606;7.576;2023-04-03T15:13:18;5.57;;;3.10;;
10586;SDS011;5341;47.606;7.576;2023-04-03T15:15:49;6.78;;;2.75;;
10586;SDS011;5341;47.606;7.576;2023-04-03T15:18:22;8.70;;;3.30;;
10586;SDS011;5341;47.606;7.576;2023-04-03T15:20:51;10.23;;;4.00;;
10586;SDS011;5341;47.606;7.576;2023-04-03T15:23:19;6.35;;;3.38;;
10586;SDS011;5341;47.606;7.576;2023-04-03T15:25:52;5.13;;;3.55;;
10586;SDS011;5341;47.606;7.576;2023-04-03T15:28:22;4.68;;;3.40;;
10586;SDS011;5341;47.606;7.576;2023-04-03T15:30:54;4.85;;;3.50;;
10586;SDS011;5341;47.606;7.576;2023-04-03T15:33:21;6.38;;;3.90;;
10586;SDS011;5341;47.606;7.576;2023-04-03T15:35:49;6.38;;;3.83;;
10586;SDS011;5341;47.606;7.576;2023-04-03T15:38:17;9.48;;;3.97;;
10586;SDS011;5341;47.606;7.576;2023-04-03T15:40:45;5.10;;;3.15;;
10586;SDS011;5341;47.606;7.576;2023-04-03T15:43:15;6.50;;;3.78;;
10586;SDS011;5341;47.606;7.576;2023-04-03T15:45:43;5.82;;;3.75;;
10586;SDS011;5341;47.606;7.576;2023-04-03T15:48:14;5.30;;;3.47;;
10586;SDS011;5341;47.606;7.576;2023-04-03T15:50:41;4.93;;;2.85;;
10586;SDS011;5341;47.606;7.576;2023-04-03T15:53:09;4.10;;;2.72;;
10586;SDS011;5341;47.606;7.576;2023-04-03T15:55:37;4.28;;;2.97;;
10586;SDS011;5341;47.606;7.576;2023-04-03T15:58:06;4.63;;;3.50;;